sensor_id;sensor_type;location;lat;lon;timestamp;P1;durP1;ratioP1;P2;durP2;ratioP2
1354;SDS011;671;48.972;9.276;2023-05-19T00:00:56;0.50;;;0.50;;
1354;SDS011;671;48.972;9.276;2023-05-19T00:03:25;0.50;;;0.50;;
1354;SDS011;671;48.972;9.276;2023-05-19T00:05:52;0.33;;;0.30;;
1354;SDS011;671;48.972;9.276;2023-05-19T00:08:19;0.47;;;0.47;;
1354;SDS011;671;48.972;9.276;2023-05-19T00:10:48;0.60;;;0.60;;
1354;SDS011;671;48.972;9.276;2023-05-19T00:13:15;0.50;;;0.50;;
1354;SDS011;671;48.972;9.276;2023-05-19T00:15:42;0.50;;;0.50;;
1354;SDS011;671;48.972;9.276;2023-05-19T00:18:08;0.50;;;0.50;;
1354;SDS011;671;48.972;9.276;2023-05-19T00:20:38;0.50;;;0.50;;
1354;SDS011;671;48.972;9.276;2023-05-19T00:23:05;0.60;;;0.60;;
1354;SDS011;671;48.972;9.276;2023-05-19T00:25:31;0.50;;;0.50;;
1354;SDS011;671;48.972;9.276;2023-05-19T00:27:58;0.47;;;0.47;;
1354;SDS011;671;48.972;9.276;2023-05-19T00:30:24;0.40;;;0.33;;
1354;SDS011;671;48.972;9.276;2023-05-19T00:32:51;0.47;;;0.47;;
1354;SDS011;671;48.972;9.276;2023-05-19T00:35:18;0.50;;;0.50;;
1354;SDS011;671;48.972;9.276;2023-05-19T00:37:45;0.40;;;0.40;;
1354;SDS011;671;48.972;9.276;2023-05-19T00:40:11;0.50;;;0.50;;
1354;SDS011;671;48.972;9.276;2023-05-19T00:42:38;0.40;;;0.40;;
1354;SDS011;671;48.972;9.276;2023-05-19T00:45:06;0.50;;;0.50;;
1354;SDS011;671;48.972;9.276;2023-05-19T00:47:33;0.60;;;0.60;;
1354;SDS011;671;48.972;9.276;2023-05-19T00:49:59;0.40;;;0.40;;
1354;SDS011;671;48.972;9.276;2023-05-19T00:52:26;0.50;;;0.50;;
1354;SDS011;671;48.972;9.276;2023-05-19T00:54:53;0.50;;;0.50;;
1354;SDS011;671;48.972;9.276;2023-05-19T00:57:20;0.50;;;0.50;;
1354;SDS011;671;48.972;9.276;2023-05-19T00:59:47;0.53;;;0.53;;
1354;SDS011;671;48.972;9.276;2023-05-19T01:02:14;0.40;;;0.40;;
1354;SDS011;671;48.972;9.276;2023-05-19T01:04:41;0.50;;;0.50;;
1354;SDS011;671;48.972;9.276;2023-05-19T01:07:09;0.40;;;0.40;;
1354;SDS011;671;48.972;9.276;2023-05-19T01:09:37;0.40;;;0.30;;
1354;SDS011;671;48.972;9.276;2023-05-19T01:12:05;0.40;;;0.40;;
1354;SDS011;671;48.972;9.276;2023-05-19T01:14:32;0.30;;;0.20;;
1354;SDS011;671;48.972;9.276;2023-05-19T01:30:57;0.40;;;0.40;;
1354;SDS011;671;48.972;9.276;2023-05-19T01:33:26;0.50;;;0.50;;
1354;SDS011;671;48.972;9.276;2023-05-19T01:35:55;0.30;;;0.30;;
1354;SDS011;671;48.972;9.276;2023-05-19T01:38:23;0.50;;;0.50;;
1354;SDS011;671;48.972;9.276;2023-05-19T01:40:50;0.40;;;0.40;;
1354;SDS011;671;48.972;9.276;2023-05-19T01:43:18;0.40;;;0.40;;
1354;SDS011;671;48.972;9.276;2023-05-19T01:45:47;0.40;;;0.40;;
1354;SDS011;671;48.972;9.276;2023-05-19T01:48:15;0.50;;;0.50;;
1354;SDS011;671;48.972;9.276;2023-05-19T01:50:43;0.50;;;0.50;;
1354;SDS011;671;48.972;9.276;2023-05-19T01:53:10;0.40;;;0.40;;
1354;SDS011;671;48.972;9.276;2023-05-19T01:55:42;0.40;;;0.30;;
1354;SDS011;671;48.972;9.276;2023-05-19T02:00:52;0.40;;;0.40;;
1354;SDS011;671;48.972;9.276;2023-05-19T02:06:29;0.50;;;0.50;;
1354;SDS011;671;48.972;9.276;2023-05-19T02:09:02;0.50;;;0.50;;
1354;SDS011;671;48.972;9.276;2023-05-19T02:14:28;0.60;;;0.60;;
1354;SDS011;671;48.972;9.276;2023-05-19T02:16:56;0.43;;;0.43;;
1354;SDS011;671;48.972;9.276;2023-05-19T02:19:25;0.60;;;0.60;;
1354;SDS011;671;48.972;9.276;2023-05-19T02:21:53;0.40;;;0.40;;
1354;SDS011;671;48.972;9.276;2023-05-19T02:24:20;0.50;;;0.50;;
1354;SDS011;671;48.972;9.276;2023-05-19T02:26:48;0.50;;;0.50;;
1354;SDS011;671;48.972;9.276;2023-05-19T02:29:15;0.50;;;0.50;;
1354;SDS011;671;48.972;9.276;2023-05-19T02:31:41;0.60;;;0.60;;
1354;SDS011;671;48.972;9.276;2023-05-19T02:34:08;0.40;;;0.40;;
1354;SDS011;671;48.972;9.276;2023-05-19T02:36:34;0.37;;;0.33;;
1354;SDS011;671;48.972;9.276;2023-05-19T02:39:02;0.50;;;0.50;;
1354;SDS011;671;48.972;9.276;2023-05-19T02:41:29;0.50;;;0.50;;
1354;SDS011;671;48.972;9.276;2023-05-19T02:43:56;0.60;;;0.60;;
1354;SDS011;671;48.972;9.276;2023-05-19T02:46:22;0.33;;;0.30;;
1354;SDS011;671;48.972;9.276;2023-05-19T02:48:49;0.40;;;0.40;;
1354;SDS011;671;48.972;9.276;2023-05-19T02:51:17;0.50;;;0.50;;
1354;SDS011;671;48.972;9.276;2023-05-19T02:53:43;0.50;;;0.50;;
1354;SDS011;671;48.972;9.276;2023-05-19T02:56:10;0.50;;;0.50;;
1354;SDS011;671;48.972;9.276;2023-05-19T02:58:36;0.60;;;0.60;;
1354;SDS011;671;48.972;9.276;2023-05-19T03:01:04;0.50;;;0.50;;
1354;SDS011;671;48.972;9.276;2023-05-19T03:03:30;0.40;;;0.40;;
1354;SDS011;671;48.972;9.276;2023-05-19T03:05:57;0.40;;;0.40;;
1354;SDS011;671;48.972;9.276;2023-05-19T03:08:24;0.50;;;0.50;;
1354;SDS011;671;48.972;9.276;2023-05-19T03:10:50;0.60;;;0.60;;
1354;SDS011;671;48.972;9.276;2023-05-19T03:13:17;0.37;;;0.37;;
1354;SDS011;671;48.972;9.276;2023-05-19T03:15:43;0.33;;;0.30;;
1354;SDS011;671;48.972;9.276;2023-05-19T03:18:10;0.57;;;0.57;;
1354;SDS011;671;48.972;9.276;2023-05-19T03:20:39;0.40;;;0.40;;
1354;SDS011;671;48.972;9.276;2023-05-19T03:23:07;0.50;;;0.50;;
1354;SDS011;671;48.972;9.276;2023-05-19T03:25:34;0.60;;;0.60;;
1354;SDS011;671;48.972;9.276;2023-05-19T03:28:00;0.60;;;0.60;;
1354;SDS011;671;48.972;9.276;2023-05-19T03:30:27;0.40;;;0.40;;
1354;SDS011;671;48.972;9.276;2023-05-19T03:32:53;0.50;;;0.50;;
1354;SDS011;671;48.972;9.276;2023-05-19T03:35:20;0.60;;;0.60;;
1354;SDS011;671;48.972;9.276;2023-05-19T03:37:46;0.50;;;0.50;;
1354;SDS011;671;48.972;9.276;2023-05-19T03:40:13;0.60;;;0.60;;
1354;SDS011;671;48.972;9.276;2023-05-19T03:42:40;0.50;;;0.50;;
1354;SDS011;671;48.972;9.276;2023-05-19T03:45:06;0.50;;;0.50;;
1354;SDS011;671;48.972;9.276;2023-05-19T03:47:33;0.40;;;0.40;;
1354;SDS011;671;48.972;9.276;2023-05-19T03:50:00;0.50;;;0.50;;
1354;SDS011;671;48.972;9.276;2023-05-19T03:52:27;0.47;;;0.47;;
1354;SDS011;671;48.972;9.276;2023-05-19T03:54:53;0.50;;;0.50;;
1354;SDS011;671;48.972;9.276;2023-05-19T03:57:20;0.50;;;0.50;;
1354;SDS011;671;48.972;9.276;2023-05-19T03:59:47;0.50;;;0.50;;
1354;SDS011;671;48.972;9.276;2023-05-19T04:02:13;0.60;;;0.60;;
1354;SDS011;671;48.972;9.276;2023-05-19T04:04:40;0.47;;;0.47;;
1354;SDS011;671;48.972;9.276;2023-05-19T04:07:06;0.40;;;0.37;;
1354;SDS011;671;48.972;9.276;2023-05-19T04:09:33;0.50;;;0.50;;
1354;SDS011;671;48.972;9.276;2023-05-19T04:12:00;0.50;;;0.50;;
1354;SDS011;671;48.972;9.276;2023-05-19T04:14:29;0.40;;;0.40;;
1354;SDS011;671;48.972;9.276;2023-05-19T04:16:56;0.40;;;0.40;;
1354;SDS011;671;48.972;9.276;2023-05-19T04:19:23;0.53;;;0.53;;
1354;SDS011;671;48.972;9.276;2023-05-19T04:21:49;0.43;;;0.43;;
1354;SDS011;671;48.972;9.276;2023-05-19T04:24:16;0.40;;;0.40;;
1354;SDS011;671;48.972;9.276;2023-05-19T04:26:42;0.40;;;0.40;;
1354;SDS011;671;48.972;9.276;2023-05-19T04:29:11;0.40;;;0.40;;
1354;SDS011;671;48.972;9.276;2023-05-19T04:31:43;0.40;;;0.40;;
1354;SDS011;671;48.972;9.276;2023-05-19T04:34:09;0.50;;;0.50;;
1354;SDS011;671;48.972;9.276;2023-05-19T04:36:36;0.50;;;0.50;;
1354;SDS011;671;48.972;9.276;2023-05-19T04:39:03;0.47;;;0.47;;
1354;SDS011;671;48.972;9.276;2023-05-19T04:41:32;0.40;;;0.40;;
1354;SDS011;671;48.972;9.276;2023-05-19T04:43:59;0.43;;;0.43;;
1354;SDS011;671;48.972;9.276;2023-05-19T04:46:26;0.50;;;0.50;;
1354;SDS011;671;48.972;9.276;2023-05-19T04:48:54;0.57;;;0.57;;
1354;SDS011;671;48.972;9.276;2023-05-19T04:51:22;0.53;;;0.53;;
1354;SDS011;671;48.972;9.276;2023-05-19T04:53:56;0.50;;;0.50;;
1354;SDS011;671;48.972;9.276;2023-05-19T04:56:23;0.50;;;0.50;;
1354;SDS011;671;48.972;9.276;2023-05-19T04:58:49;0.60;;;0.60;;
1354;SDS011;671;48.972;9.276;2023-05-19T05:01:16;0.50;;;0.50;;
1354;SDS011;671;48.972;9.276;2023-05-19T05:03:42;0.50;;;0.50;;
1354;SDS011;671;48.972;9.276;2023-05-19T05:06:09;0.53;;;0.53;;
1354;SDS011;671;48.972;9.276;2023-05-19T05:08:36;0.60;;;0.60;;
1354;SDS011;671;48.972;9.276;2023-05-19T05:11:05;0.50;;;0.50;;
1354;SDS011;671;48.972;9.276;2023-05-19T05:13:32;0.50;;;0.50;;
1354;SDS011;671;48.972;9.276;2023-05-19T05:15:59;0.57;;;0.57;;
1354;SDS011;671;48.972;9.276;2023-05-19T05:18:25;0.50;;;0.50;;
1354;SDS011;671;48.972;9.276;2023-05-19T05:20:52;0.60;;;0.60;;
1354;SDS011;671;48.972;9.276;2023-05-19T05:23:19;0.50;;;0.50;;
1354;SDS011;671;48.972;9.276;2023-05-19T05:25:46;0.50;;;0.50;;
1354;SDS011;671;48.972;9.276;2023-05-19T05:28:12;0.40;;;0.40;;
1354;SDS011;671;48.972;9.276;2023-05-19T05:30:39;0.50;;;0.50;;
1354;SDS011;671;48.972;9.276;2023-05-19T05:33:06;0.40;;;0.40;;
1354;SDS011;671;48.972;9.276;2023-05-19T05:35:33;0.40;;;0.40;;
1354;SDS011;671;48.972;9.276;2023-05-19T05:38:00;0.50;;;0.50;;
1354;SDS011;671;48.972;9.276;2023-05-19T05:40:27;0.40;;;0.40;;
1354;SDS011;671;48.972;9.276;2023-05-19T05:42:53;0.30;;;0.30;;
1354;SDS011;671;48.972;9.276;2023-05-19T05:45:24;0.50;;;0.50;;
1354;SDS011;671;48.972;9.276;2023-05-19T05:47:50;0.40;;;0.40;;
1354;SDS011;671;48.972;9.276;2023-05-19T05:50:17;0.40;;;0.40;;
1354;SDS011;671;48.972;9.276;2023-05-19T05:52:45;0.30;;;0.30;;
1354;SDS011;671;48.972;9.276;2023-05-19T05:55:13;0.40;;;0.40;;
1354;SDS011;671;48.972;9.276;2023-05-19T05:57:42;0.40;;;0.40;;
1354;SDS011;671;48.972;9.276;2023-05-19T06:00:08;0.40;;;0.40;;
1354;SDS011;671;48.972;9.276;2023-05-19T06:02:48;0.43;;;0.43;;
1354;SDS011;671;48.972;9.276;2023-05-19T06:05:15;0.40;;;0.40;;
1354;SDS011;671;48.972;9.276;2023-05-19T06:07:42;0.40;;;0.40;;
1354;SDS011;671;48.972;9.276;2023-05-19T06:10:09;0.40;;;0.40;;
1354;SDS011;671;48.972;9.276;2023-05-19T06:12:35;0.33;;;0.33;;
1354;SDS011;671;48.972;9.276;2023-05-19T06:15:05;0.40;;;0.40;;
1354;SDS011;671;48.972;9.276;2023-05-19T06:17:33;0.30;;;0.30;;
1354;SDS011;671;48.972;9.276;2023-05-19T06:20:02;0.40;;;0.40;;
1354;SDS011;671;48.972;9.276;2023-05-19T06:22:30;0.30;;;0.30;;
1354;SDS011;671;48.972;9.276;2023-05-19T06:24:57;0.40;;;0.30;;
1354;SDS011;671;48.972;9.276;2023-05-19T06:27:23;0.40;;;0.40;;
1354;SDS011;671;48.972;9.276;2023-05-19T06:29:50;0.40;;;0.37;;
1354;SDS011;671;48.972;9.276;2023-05-19T06:32:17;0.37;;;0.37;;
1354;SDS011;671;48.972;9.276;2023-05-19T06:34:43;0.30;;;0.30;;
1354;SDS011;671;48.972;9.276;2023-05-19T06:37:10;0.30;;;0.30;;
1354;SDS011;671;48.972;9.276;2023-05-19T06:39:39;0.30;;;0.30;;
1354;SDS011;671;48.972;9.276;2023-05-19T06:42:06;0.40;;;0.40;;
1354;SDS011;671;48.972;9.276;2023-05-19T06:44:32;0.30;;;0.30;;
1354;SDS011;671;48.972;9.276;2023-05-19T06:46:59;0.30;;;0.30;;
1354;SDS011;671;48.972;9.276;2023-05-19T06:49:25;0.30;;;0.30;;
1354;SDS011;671;48.972;9.276;2023-05-19T06:51:54;0.40;;;0.30;;
1354;SDS011;671;48.972;9.276;2023-05-19T06:54:20;0.30;;;0.30;;
1354;SDS011;671;48.972;9.276;2023-05-19T06:56:47;0.30;;;0.30;;
1354;SDS011;671;48.972;9.276;2023-05-19T06:59:13;0.30;;;0.30;;
1354;SDS011;671;48.972;9.276;2023-05-19T07:01:41;0.30;;;0.20;;
1354;SDS011;671;48.972;9.276;2023-05-19T07:04:07;0.30;;;0.30;;
1354;SDS011;671;48.972;9.276;2023-05-19T07:06:33;0.30;;;0.30;;
1354;SDS011;671;48.972;9.276;2023-05-19T07:09:00;0.30;;;0.20;;
1354;SDS011;671;48.972;9.276;2023-05-19T07:11:27;0.30;;;0.30;;
1354;SDS011;671;48.972;9.276;2023-05-19T07:13:53;0.30;;;0.30;;
1354;SDS011;671;48.972;9.276;2023-05-19T07:16:20;0.30;;;0.30;;
1354;SDS011;671;48.972;9.276;2023-05-19T07:18:46;0.30;;;0.30;;
1354;SDS011;671;48.972;9.276;2023-05-19T07:21:12;0.40;;;0.40;;
1354;SDS011;671;48.972;9.276;2023-05-19T07:23:39;0.30;;;0.20;;
1354;SDS011;671;48.972;9.276;2023-05-19T07:26:05;0.30;;;0.30;;
1354;SDS011;671;48.972;9.276;2023-05-19T07:28:32;0.30;;;0.20;;
1354;SDS011;671;48.972;9.276;2023-05-19T07:30:59;0.30;;;0.20;;
1354;SDS011;671;48.972;9.276;2023-05-19T07:33:26;0.30;;;0.20;;
1354;SDS011;671;48.972;9.276;2023-05-19T07:35:52;0.30;;;0.20;;
1354;SDS011;671;48.972;9.276;2023-05-19T07:38:19;0.30;;;0.30;;
1354;SDS011;671;48.972;9.276;2023-05-19T07:40:46;0.30;;;0.30;;
1354;SDS011;671;48.972;9.276;2023-05-19T07:43:12;0.30;;;0.30;;
1354;SDS011;671;48.972;9.276;2023-05-19T07:45:39;0.30;;;0.30;;
1354;SDS011;671;48.972;9.276;2023-05-19T07:48:05;0.30;;;0.30;;
1354;SDS011;671;48.972;9.276;2023-05-19T07:50:32;0.30;;;0.20;;
1354;SDS011;671;48.972;9.276;2023-05-19T07:52:59;0.30;;;0.30;;
1354;SDS011;671;48.972;9.276;2023-05-19T07:55:25;0.30;;;0.30;;
1354;SDS011;671;48.972;9.276;2023-05-19T07:57:52;0.30;;;0.30;;
1354;SDS011;671;48.972;9.276;2023-05-19T08:00:18;0.30;;;0.27;;
1354;SDS011;671;48.972;9.276;2023-05-19T08:02:45;0.30;;;0.30;;
1354;SDS011;671;48.972;9.276;2023-05-19T08:05:12;0.30;;;0.30;;
1354;SDS011;671;48.972;9.276;2023-05-19T08:07:38;0.30;;;0.30;;
1354;SDS011;671;48.972;9.276;2023-05-19T08:10:05;0.30;;;0.20;;
1354;SDS011;671;48.972;9.276;2023-05-19T08:12:32;0.30;;;0.30;;
1354;SDS011;671;48.972;9.276;2023-05-19T08:14:58;0.30;;;0.30;;
1354;SDS011;671;48.972;9.276;2023-05-19T08:17:25;0.30;;;0.30;;
1354;SDS011;671;48.972;9.276;2023-05-19T08:19:51;0.30;;;0.30;;
1354;SDS011;671;48.972;9.276;2023-05-19T08:22:18;0.30;;;0.20;;
1354;SDS011;671;48.972;9.276;2023-05-19T08:24:44;0.30;;;0.20;;
1354;SDS011;671;48.972;9.276;2023-05-19T08:27:11;0.30;;;0.20;;
1354;SDS011;671;48.972;9.276;2023-05-19T08:29:37;0.30;;;0.20;;
1354;SDS011;671;48.972;9.276;2023-05-19T08:32:04;0.30;;;0.30;;
1354;SDS011;671;48.972;9.276;2023-05-19T08:34:30;0.30;;;0.20;;
1354;SDS011;671;48.972;9.276;2023-05-19T08:36:57;0.30;;;0.20;;
1354;SDS011;671;48.972;9.276;2023-05-19T08:39:24;0.30;;;0.27;;
1354;SDS011;671;48.972;9.276;2023-05-19T08:41:52;0.30;;;0.20;;
1354;SDS011;671;48.972;9.276;2023-05-19T08:44:19;0.30;;;0.30;;
1354;SDS011;671;48.972;9.276;2023-05-19T08:46:46;0.30;;;0.30;;
1354;SDS011;671;48.972;9.276;2023-05-19T08:49:13;0.30;;;0.20;;
1354;SDS011;671;48.972;9.276;2023-05-19T08:54:13;0.30;;;0.30;;
1354;SDS011;671;48.972;9.276;2023-05-19T08:56:43;0.30;;;0.20;;
1354;SDS011;671;48.972;9.276;2023-05-19T08:59:11;0.30;;;0.20;;
1354;SDS011;671;48.972;9.276;2023-05-19T09:01:43;0.30;;;0.30;;
1354;SDS011;671;48.972;9.276;2023-05-19T09:04:13;0.30;;;0.20;;
1354;SDS011;671;48.972;9.276;2023-05-19T09:06:41;0.30;;;0.20;;
1354;SDS011;671;48.972;9.276;2023-05-19T09:09:10;0.30;;;0.20;;
1354;SDS011;671;48.972;9.276;2023-05-19T09:11:36;0.30;;;0.30;;
1354;SDS011;671;48.972;9.276;2023-05-19T09:14:03;0.30;;;0.30;;
1354;SDS011;671;48.972;9.276;2023-05-19T09:16:30;0.30;;;0.20;;
1354;SDS011;671;48.972;9.276;2023-05-19T09:18:58;0.30;;;0.20;;
1354;SDS011;671;48.972;9.276;2023-05-19T09:21:29;0.30;;;0.30;;
1354;SDS011;671;48.972;9.276;2023-05-19T09:24:02;0.30;;;0.20;;
1354;SDS011;671;48.972;9.276;2023-05-19T09:26:36;0.30;;;0.20;;
1354;SDS011;671;48.972;9.276;2023-05-19T09:29:17;0.30;;;0.20;;
1354;SDS011;671;48.972;9.276;2023-05-19T09:31:50;0.30;;;0.30;;
1354;SDS011;671;48.972;9.276;2023-05-19T09:34:19;0.30;;;0.20;;
1354;SDS011;671;48.972;9.276;2023-05-19T09:36:49;0.30;;;0.20;;
1354;SDS011;671;48.972;9.276;2023-05-19T09:39:19;0.30;;;0.20;;
1354;SDS011;671;48.972;9.276;2023-05-19T09:41:51;0.30;;;0.20;;
1354;SDS011;671;48.972;9.276;2023-05-19T09:46:46;0.30;;;0.30;;
1354;SDS011;671;48.972;9.276;2023-05-19T09:49:17;0.30;;;0.20;;
1354;SDS011;671;48.972;9.276;2023-05-19T09:51:52;0.30;;;0.30;;
1354;SDS011;671;48.972;9.276;2023-05-19T09:54:22;0.30;;;0.20;;
1354;SDS011;671;48.972;9.276;2023-05-19T09:57:00;0.30;;;0.27;;
1354;SDS011;671;48.972;9.276;2023-05-19T09:59:28;0.30;;;0.20;;
1354;SDS011;671;48.972;9.276;2023-05-19T10:01:57;0.30;;;0.20;;
1354;SDS011;671;48.972;9.276;2023-05-19T10:04:25;0.30;;;0.20;;
1354;SDS011;671;48.972;9.276;2023-05-19T10:06:53;0.30;;;0.30;;
1354;SDS011;671;48.972;9.276;2023-05-19T10:09:24;0.30;;;0.20;;
1354;SDS011;671;48.972;9.276;2023-05-19T10:11:52;0.30;;;0.30;;
1354;SDS011;671;48.972;9.276;2023-05-19T10:14:23;0.30;;;0.30;;
1354;SDS011;671;48.972;9.276;2023-05-19T10:16:52;0.30;;;0.20;;
1354;SDS011;671;48.972;9.276;2023-05-19T10:19:22;0.30;;;0.20;;
1354;SDS011;671;48.972;9.276;2023-05-19T10:21:50;0.30;;;0.20;;
1354;SDS011;671;48.972;9.276;2023-05-19T10:24:18;0.30;;;0.20;;
1354;SDS011;671;48.972;9.276;2023-05-19T10:26:47;0.30;;;0.20;;
1354;SDS011;671;48.972;9.276;2023-05-19T10:29:20;0.30;;;0.20;;
1354;SDS011;671;48.972;9.276;2023-05-19T10:31:52;0.30;;;0.20;;
1354;SDS011;671;48.972;9.276;2023-05-19T10:36:59;0.30;;;0.30;;
1354;SDS011;671;48.972;9.276;2023-05-19T10:39:34;0.30;;;0.20;;
1354;SDS011;671;48.972;9.276;2023-05-19T10:47:06;0.30;;;0.30;;
1354;SDS011;671;48.972;9.276;2023-05-19T10:49:33;0.30;;;0.27;;
1354;SDS011;671;48.972;9.276;2023-05-19T10:52:01;0.30;;;0.20;;
1354;SDS011;671;48.972;9.276;2023-05-19T10:54:41;0.30;;;0.20;;
1354;SDS011;671;48.972;9.276;2023-05-19T10:57:14;0.30;;;0.20;;
1354;SDS011;671;48.972;9.276;2023-05-19T10:59:42;0.30;;;0.30;;
1354;SDS011;671;48.972;9.276;2023-05-19T11:05:07;0.30;;;0.30;;
1354;SDS011;671;48.972;9.276;2023-05-19T11:07:43;0.30;;;0.20;;
1354;SDS011;671;48.972;9.276;2023-05-19T11:10:23;0.30;;;0.20;;
1354;SDS011;671;48.972;9.276;2023-05-19T11:12:50;0.30;;;0.20;;
1354;SDS011;671;48.972;9.276;2023-05-19T11:15:17;0.30;;;0.20;;
1354;SDS011;671;48.972;9.276;2023-05-19T11:17:47;0.30;;;0.20;;
1354;SDS011;671;48.972;9.276;2023-05-19T11:20:24;0.30;;;0.20;;
1354;SDS011;671;48.972;9.276;2023-05-19T11:25:46;0.30;;;0.20;;
1354;SDS011;671;48.972;9.276;2023-05-19T11:28:14;0.30;;;0.30;;
1354;SDS011;671;48.972;9.276;2023-05-19T11:30:44;0.30;;;0.20;;
1354;SDS011;671;48.972;9.276;2023-05-19T11:33:14;0.30;;;0.30;;
1354;SDS011;671;48.972;9.276;2023-05-19T11:35:47;0.30;;;0.20;;
1354;SDS011;671;48.972;9.276;2023-05-19T11:38:16;0.30;;;0.27;;
1354;SDS011;671;48.972;9.276;2023-05-19T11:40:43;0.30;;;0.30;;
1354;SDS011;671;48.972;9.276;2023-05-19T11:43:10;0.30;;;0.20;;
1354;SDS011;671;48.972;9.276;2023-05-19T11:45:37;0.30;;;0.20;;
1354;SDS011;671;48.972;9.276;2023-05-19T11:48:04;0.30;;;0.20;;
1354;SDS011;671;48.972;9.276;2023-05-19T11:50:31;0.30;;;0.20;;
1354;SDS011;671;48.972;9.276;2023-05-19T11:52:58;0.30;;;0.23;;
1354;SDS011;671;48.972;9.276;2023-05-19T11:55:26;0.30;;;0.20;;
1354;SDS011;671;48.972;9.276;2023-05-19T11:57:59;0.30;;;0.20;;
1354;SDS011;671;48.972;9.276;2023-05-19T12:00:27;0.30;;;0.20;;
1354;SDS011;671;48.972;9.276;2023-05-19T12:02:55;0.30;;;0.20;;
1354;SDS011;671;48.972;9.276;2023-05-19T12:05:23;0.30;;;0.20;;
1354;SDS011;671;48.972;9.276;2023-05-19T12:07:50;0.30;;;0.20;;
1354;SDS011;671;48.972;9.276;2023-05-19T12:10:20;0.30;;;0.20;;
1354;SDS011;671;48.972;9.276;2023-05-19T12:12:52;0.30;;;0.20;;
1354;SDS011;671;48.972;9.276;2023-05-19T12:15:22;0.30;;;0.20;;
1354;SDS011;671;48.972;9.276;2023-05-19T12:17:50;0.30;;;0.30;;
1354;SDS011;671;48.972;9.276;2023-05-19T12:20:21;0.30;;;0.20;;
1354;SDS011;671;48.972;9.276;2023-05-19T12:22:49;0.30;;;0.20;;
1354;SDS011;671;48.972;9.276;2023-05-19T12:25:16;0.30;;;0.20;;
1354;SDS011;671;48.972;9.276;2023-05-19T12:27:43;0.30;;;0.30;;
1354;SDS011;671;48.972;9.276;2023-05-19T12:30:10;0.30;;;0.20;;
1354;SDS011;671;48.972;9.276;2023-05-19T12:32:37;0.30;;;0.20;;
1354;SDS011;671;48.972;9.276;2023-05-19T12:35:04;0.30;;;0.27;;
1354;SDS011;671;48.972;9.276;2023-05-19T12:37:32;0.30;;;0.30;;
1354;SDS011;671;48.972;9.276;2023-05-19T12:40:00;0.30;;;0.20;;
1354;SDS011;671;48.972;9.276;2023-05-19T12:42:29;0.30;;;0.30;;
1354;SDS011;671;48.972;9.276;2023-05-19T12:44:59;0.30;;;0.20;;
1354;SDS011;671;48.972;9.276;2023-05-19T12:47:31;0.30;;;0.30;;
1354;SDS011;671;48.972;9.276;2023-05-19T12:50:06;0.30;;;0.30;;
1354;SDS011;671;48.972;9.276;2023-05-19T12:52:40;0.30;;;0.20;;
1354;SDS011;671;48.972;9.276;2023-05-19T12:55:11;0.30;;;0.30;;
1354;SDS011;671;48.972;9.276;2023-05-19T12:57:39;0.30;;;0.20;;
1354;SDS011;671;48.972;9.276;2023-05-19T13:00:07;0.30;;;0.20;;
1354;SDS011;671;48.972;9.276;2023-05-19T13:05:30;0.30;;;0.20;;
1354;SDS011;671;48.972;9.276;2023-05-19T13:08:09;0.67;;;0.67;;
1354;SDS011;671;48.972;9.276;2023-05-19T13:10:37;0.30;;;0.30;;
1354;SDS011;671;48.972;9.276;2023-05-19T13:13:05;0.30;;;0.20;;
1354;SDS011;671;48.972;9.276;2023-05-19T13:15:33;0.30;;;0.30;;
1354;SDS011;671;48.972;9.276;2023-05-19T13:18:03;0.30;;;0.20;;
1354;SDS011;671;48.972;9.276;2023-05-19T13:20:31;0.30;;;0.20;;
1354;SDS011;671;48.972;9.276;2023-05-19T13:23:01;0.30;;;0.30;;
1354;SDS011;671;48.972;9.276;2023-05-19T13:25:28;0.30;;;0.20;;
1354;SDS011;671;48.972;9.276;2023-05-19T13:27:54;0.30;;;0.30;;
1354;SDS011;671;48.972;9.276;2023-05-19T13:30:21;0.30;;;0.20;;
1354;SDS011;671;48.972;9.276;2023-05-19T13:32:48;0.30;;;0.20;;
1354;SDS011;671;48.972;9.276;2023-05-19T13:35:17;0.30;;;0.20;;
1354;SDS011;671;48.972;9.276;2023-05-19T13:37:43;0.30;;;0.20;;
1354;SDS011;671;48.972;9.276;2023-05-19T13:40:10;0.30;;;0.20;;
1354;SDS011;671;48.972;9.276;2023-05-19T13:42:37;0.30;;;0.23;;
1354;SDS011;671;48.972;9.276;2023-05-19T13:45:04;0.30;;;0.30;;
1354;SDS011;671;48.972;9.276;2023-05-19T13:47:30;0.30;;;0.27;;
1354;SDS011;671;48.972;9.276;2023-05-19T13:49:57;0.30;;;0.20;;
1354;SDS011;671;48.972;9.276;2023-05-19T13:52:24;0.30;;;0.20;;
1354;SDS011;671;48.972;9.276;2023-05-19T13:54:51;0.30;;;0.20;;
1354;SDS011;671;48.972;9.276;2023-05-19T13:57:19;0.30;;;0.30;;
1354;SDS011;671;48.972;9.276;2023-05-19T13:59:46;0.30;;;0.20;;
1354;SDS011;671;48.972;9.276;2023-05-19T14:02:12;0.30;;;0.30;;
1354;SDS011;671;48.972;9.276;2023-05-19T14:04:39;0.30;;;0.30;;
1354;SDS011;671;48.972;9.276;2023-05-19T14:07:05;0.30;;;0.20;;
1354;SDS011;671;48.972;9.276;2023-05-19T14:09:32;0.30;;;0.30;;
1354;SDS011;671;48.972;9.276;2023-05-19T14:11:59;0.30;;;0.30;;
1354;SDS011;671;48.972;9.276;2023-05-19T14:14:26;0.30;;;0.20;;
1354;SDS011;671;48.972;9.276;2023-05-19T14:16:52;0.30;;;0.30;;
1354;SDS011;671;48.972;9.276;2023-05-19T14:19:19;0.30;;;0.20;;
1354;SDS011;671;48.972;9.276;2023-05-19T14:21:45;0.30;;;0.30;;
1354;SDS011;671;48.972;9.276;2023-05-19T14:24:12;0.30;;;0.20;;
1354;SDS011;671;48.972;9.276;2023-05-19T14:26:39;0.30;;;0.30;;
1354;SDS011;671;48.972;9.276;2023-05-19T14:29:05;0.30;;;0.30;;
1354;SDS011;671;48.972;9.276;2023-05-19T14:31:32;0.30;;;0.27;;
1354;SDS011;671;48.972;9.276;2023-05-19T14:33:58;0.30;;;0.20;;
1354;SDS011;671;48.972;9.276;2023-05-19T14:36:25;0.30;;;0.30;;
1354;SDS011;671;48.972;9.276;2023-05-19T14:38:51;0.30;;;0.20;;
1354;SDS011;671;48.972;9.276;2023-05-19T14:41:18;0.30;;;0.30;;
1354;SDS011;671;48.972;9.276;2023-05-19T14:43:44;0.30;;;0.20;;
1354;SDS011;671;48.972;9.276;2023-05-19T14:46:11;0.30;;;0.20;;
1354;SDS011;671;48.972;9.276;2023-05-19T14:48:37;0.30;;;0.20;;
1354;SDS011;671;48.972;9.276;2023-05-19T14:51:04;0.30;;;0.20;;
1354;SDS011;671;48.972;9.276;2023-05-19T14:53:30;0.30;;;0.20;;
1354;SDS011;671;48.972;9.276;2023-05-19T14:55:57;0.30;;;0.20;;
1354;SDS011;671;48.972;9.276;2023-05-19T14:58:23;0.30;;;0.20;;
1354;SDS011;671;48.972;9.276;2023-05-19T15:00:50;0.30;;;0.20;;
1354;SDS011;671;48.972;9.276;2023-05-19T15:03:16;0.40;;;0.37;;
1354;SDS011;671;48.972;9.276;2023-05-19T15:05:43;0.30;;;0.20;;
1354;SDS011;671;48.972;9.276;2023-05-19T15:08:10;0.30;;;0.20;;
1354;SDS011;671;48.972;9.276;2023-05-19T15:10:36;0.30;;;0.20;;
1354;SDS011;671;48.972;9.276;2023-05-19T15:13:03;0.30;;;0.30;;
1354;SDS011;671;48.972;9.276;2023-05-19T15:15:30;0.30;;;0.20;;
1354;SDS011;671;48.972;9.276;2023-05-19T15:17:56;0.30;;;0.20;;
1354;SDS011;671;48.972;9.276;2023-05-19T15:20:23;0.30;;;0.20;;
1354;SDS011;671;48.972;9.276;2023-05-19T15:22:49;0.30;;;0.20;;
1354;SDS011;671;48.972;9.276;2023-05-19T15:25:16;0.30;;;0.20;;
1354;SDS011;671;48.972;9.276;2023-05-19T15:27:42;0.30;;;0.20;;
1354;SDS011;671;48.972;9.276;2023-05-19T15:30:09;0.30;;;0.20;;
1354;SDS011;671;48.972;9.276;2023-05-19T15:32:35;0.30;;;0.20;;
1354;SDS011;671;48.972;9.276;2023-05-19T15:35:02;0.30;;;0.20;;
1354;SDS011;671;48.972;9.276;2023-05-19T15:37:29;0.30;;;0.20;;
1354;SDS011;671;48.972;9.276;2023-05-19T15:39:55;0.30;;;0.20;;
1354;SDS011;671;48.972;9.276;2023-05-19T15:42:22;0.30;;;0.20;;
1354;SDS011;671;48.972;9.276;2023-05-19T15:44:48;0.30;;;0.20;;
1354;SDS011;671;48.972;9.276;2023-05-19T15:47:15;0.30;;;0.20;;
1354;SDS011;671;48.972;9.276;2023-05-19T15:49:41;0.30;;;0.20;;
1354;SDS011;671;48.972;9.276;2023-05-19T15:52:07;0.30;;;0.20;;
1354;SDS011;671;48.972;9.276;2023-05-19T15:54:34;0.30;;;0.20;;
1354;SDS011;671;48.972;9.276;2023-05-19T15:57:00;0.30;;;0.20;;
1354;SDS011;671;48.972;9.276;2023-05-19T15:59:27;0.30;;;0.20;;
1354;SDS011;671;48.972;9.276;2023-05-19T16:01:53;0.30;;;0.20;;
1354;SDS011;671;48.972;9.276;2023-05-19T16:04:20;0.30;;;0.20;;
1354;SDS011;671;48.972;9.276;2023-05-19T16:06:46;0.30;;;0.20;;
1354;SDS011;671;48.972;9.276;2023-05-19T16:09:13;0.30;;;0.20;;
1354;SDS011;671;48.972;9.276;2023-05-19T16:11:39;0.30;;;0.20;;
1354;SDS011;671;48.972;9.276;2023-05-19T16:14:06;0.30;;;0.20;;
1354;SDS011;671;48.972;9.276;2023-05-19T16:16:32;0.30;;;0.20;;